sensor_id;sensor_type;location;lat;lon;timestamp;temperature;humidity
15357;DHT22;7778;48.792;9.260;2023-12-28T00:00:17;7.50;99.90
15357;DHT22;7778;48.792;9.260;2023-12-28T00:03:03;7.60;99.90
15357;DHT22;7778;48.792;9.260;2023-12-28T00:05:50;7.60;99.90
15357;DHT22;7778;48.792;9.260;2023-12-28T00:08:36;7.70;99.90
15357;DHT22;7778;48.792;9.260;2023-12-28T00:11:21;7.80;99.90
15357;DHT22;7778;48.792;9.260;2023-12-28T00:14:07;7.90;99.90
15357;DHT22;7778;48.792;9.260;2023-12-28T00:16:53;8.10;99.90
15357;DHT22;7778;48.792;9.260;2023-12-28T00:19:38;8.30;99.90
15357;DHT22;7778;48.792;9.260;2023-12-28T00:22:25;8.40;99.90
15357;DHT22;7778;48.792;9.260;2023-12-28T00:25:10;8.50;99.90
15357;DHT22;7778;48.792;9.260;2023-12-28T00:27:56;8.50;99.90
15357;DHT22;7778;48.792;9.260;2023-12-28T00:30:42;8.70;99.90
15357;DHT22;7778;48.792;9.260;2023-12-28T00:33:27;8.60;99.90
15357;DHT22;7778;48.792;9.260;2023-12-28T00:36:13;8.60;99.90
15357;DHT22;7778;48.792;9.260;2023-12-28T00:39:00;8.70;99.90
15357;DHT22;7778;48.792;9.260;2023-12-28T00:41:45;8.70;99.90
15357;DHT22;7778;48.792;9.260;2023-12-28T00:44:31;8.60;99.90
15357;DHT22;7778;48.792;9.260;2023-12-28T00:47:16;8.60;99.90
15357;DHT22;7778;48.792;9.260;2023-12-28T00:50:02;8.70;99.90
15357;DHT22;7778;48.792;9.260;2023-12-28T00:52:48;8.60;99.90
15357;DHT22;7778;48.792;9.260;2023-12-28T00:55:35;8.60;99.90
15357;DHT22;7778;48.792;9.260;2023-12-28T00:58:20;8.60;99.90
15357;DHT22;7778;48.792;9.260;2023-12-28T01:01:06;8.70;99.90
15357;DHT22;7778;48.792;9.260;2023-12-28T01:03:51;8.70;99.90
15357;DHT22;7778;48.792;9.260;2023-12-28T01:06:37;8.70;99.90
15357;DHT22;7778;48.792;9.260;2023-12-28T01:09:23;8.70;99.90
15357;DHT22;7778;48.792;9.260;2023-12-28T01:12:10;8.60;99.90
15357;DHT22;7778;48.792;9.260;2023-12-28T01:14:55;8.50;99.90
15357;DHT22;7778;48.792;9.260;2023-12-28T01:17:41;8.40;99.90
15357;DHT22;7778;48.792;9.260;2023-12-28T01:20:27;8.40;99.90
15357;DHT22;7778;48.792;9.260;2023-12-28T01:23:12;8.40;99.90
15357;DHT22;7778;48.792;9.260;2023-12-28T01:25:59;8.40;99.90
15357;DHT22;7778;48.792;9.260;2023-12-28T01:28:46;8.40;99.90
15357;DHT22;7778;48.792;9.260;2023-12-28T01:31:32;8.40;99.90
15357;DHT22;7778;48.792;9.260;2023-12-28T01:34:17;8.40;99.90
15357;DHT22;7778;48.792;9.260;2023-12-28T01:37:03;8.30;99.90
15357;DHT22;7778;48.792;9.260;2023-12-28T01:39:49;8.30;99.90
15357;DHT22;7778;48.792;9.260;2023-12-28T01:42:34;8.30;99.90
15357;DHT22;7778;48.792;9.260;2023-12-28T01:45:21;8.20;99.90
15357;DHT22;7778;48.792;9.260;2023-12-28T01:48:07;8.20;99.90
15357;DHT22;7778;48.792;9.260;2023-12-28T01:50:54;8.30;99.90
15357;DHT22;7778;48.792;9.260;2023-12-28T01:53:41;8.30;99.90
15357;DHT22;7778;48.792;9.260;2023-12-28T01:56:27;8.30;99.90
15357;DHT22;7778;48.792;9.260;2023-12-28T01:59:13;8.30;99.90
15357;DHT22;7778;48.792;9.260;2023-12-28T02:02:00;8.20;99.90
15357;DHT22;7778;48.792;9.260;2023-12-28T02:04:46;8.00;99.90
15357;DHT22;7778;48.792;9.260;2023-12-28T02:07:32;8.00;99.90
15357;DHT22;7778;48.792;9.260;2023-12-28T02:10:18;8.00;99.90
15357;DHT22;7778;48.792;9.260;2023-12-28T02:13:04;8.00;99.90
15357;DHT22;7778;48.792;9.260;2023-12-28T02:15:53;8.00;99.90
15357;DHT22;7778;48.792;9.260;2023-12-28T02:18:44;8.00;99.90
15357;DHT22;7778;48.792;9.260;2023-12-28T02:21:33;8.00;99.90
15357;DHT22;7778;48.792;9.260;2023-12-28T02:24:19;7.90;99.90
15357;DHT22;7778;48.792;9.260;2023-12-28T02:27:06;8.00;99.90
15357;DHT22;7778;48.792;9.260;2023-12-28T02:29:51;8.00;99.90
15357;DHT22;7778;48.792;9.260;2023-12-28T02:32:54;8.10;99.90
15357;DHT22;7778;48.792;9.260;2023-12-28T02:35:50;7.90;99.90
15357;DHT22;7778;48.792;9.260;2023-12-28T02:38:38;8.00;99.90
15357;DHT22;7778;48.792;9.260;2023-12-28T02:41:25;7.90;99.90
15357;DHT22;7778;48.792;9.260;2023-12-28T02:44:13;7.80;99.90
15357;DHT22;7778;48.792;9.260;2023-12-28T02:46:59;7.80;99.90
15357;DHT22;7778;48.792;9.260;2023-12-28T02:49:45;7.70;99.90
15357;DHT22;7778;48.792;9.260;2023-12-28T02:52:30;7.70;99.90
15357;DHT22;7778;48.792;9.260;2023-12-28T02:55:15;8.00;99.90
15357;DHT22;7778;48.792;9.260;2023-12-28T02:58:01;7.80;99.90
15357;DHT22;7778;48.792;9.260;2023-12-28T03:00:48;7.80;99.90
15357;DHT22;7778;48.792;9.260;2023-12-28T03:03:34;8.10;99.90
15357;DHT22;7778;48.792;9.260;2023-12-28T03:06:19;7.90;99.90
15357;DHT22;7778;48.792;9.260;2023-12-28T03:09:05;8.00;99.90
15357;DHT22;7778;48.792;9.260;2023-12-28T03:11:50;8.00;99.90
15357;DHT22;7778;48.792;9.260;2023-12-28T03:14:36;8.00;99.90
15357;DHT22;7778;48.792;9.260;2023-12-28T03:17:23;8.10;99.90
15357;DHT22;7778;48.792;9.260;2023-12-28T03:20:09;8.10;99.90
15357;DHT22;7778;48.792;9.260;2023-12-28T03:22:55;8.10;99.90
15357;DHT22;7778;48.792;9.260;2023-12-28T03:25:41;8.20;99.90
15357;DHT22;7778;48.792;9.260;2023-12-28T03:28:27;8.10;99.90
15357;DHT22;7778;48.792;9.260;2023-12-28T03:31:13;8.10;99.90
15357;DHT22;7778;48.792;9.260;2023-12-28T03:34:00;8.10;99.90
15357;DHT22;7778;48.792;9.260;2023-12-28T03:36:45;8.10;99.90
15357;DHT22;7778;48.792;9.260;2023-12-28T03:39:31;8.10;99.90
15357;DHT22;7778;48.792;9.260;2023-12-28T03:42:17;8.00;99.90
15357;DHT22;7778;48.792;9.260;2023-12-28T03:45:03;8.00;99.90
15357;DHT22;7778;48.792;9.260;2023-12-28T03:47:50;8.00;99.90
15357;DHT22;7778;48.792;9.260;2023-12-28T03:50:37;8.00;99.90
15357;DHT22;7778;48.792;9.260;2023-12-28T03:53:23;8.00;99.90
15357;DHT22;7778;48.792;9.260;2023-12-28T03:56:18;7.90;99.90
15357;DHT22;7778;48.792;9.260;2023-12-28T03:59:05;8.00;99.90
15357;DHT22;7778;48.792;9.260;2023-12-28T04:01:51;8.00;99.90
15357;DHT22;7778;48.792;9.260;2023-12-28T04:04:36;8.00;99.90
15357;DHT22;7778;48.792;9.260;2023-12-28T04:07:23;8.00;99.90
15357;DHT22;7778;48.792;9.260;2023-12-28T04:10:09;8.10;99.90
15357;DHT22;7778;48.792;9.260;2023-12-28T04:12:55;8.20;99.90
15357;DHT22;7778;48.792;9.260;2023-12-28T04:15:42;8.20;99.90
15357;DHT22;7778;48.792;9.260;2023-12-28T04:18:28;8.30;99.90
15357;DHT22;7778;48.792;9.260;2023-12-28T04:21:14;8.30;99.90
15357;DHT22;7778;48.792;9.260;2023-12-28T04:24:01;8.30;99.90
15357;DHT22;7778;48.792;9.260;2023-12-28T04:26:46;8.30;99.90
15357;DHT22;7778;48.792;9.260;2023-12-28T04:29:32;8.30;99.90
15357;DHT22;7778;48.792;9.260;2023-12-28T04:32:19;8.30;99.90
15357;DHT22;7778;48.792;9.260;2023-12-28T04:35:06;8.40;99.90
15357;DHT22;7778;48.792;9.260;2023-12-28T04:37:52;8.30;99.90
15357;DHT22;7778;48.792;9.260;2023-12-28T04:40:38;8.30;99.90
15357;DHT22;7778;48.792;9.260;2023-12-28T04:43:24;8.30;99.90
15357;DHT22;7778;48.792;9.260;2023-12-28T04:46:10;8.40;99.90
15357;DHT22;7778;48.792;9.260;2023-12-28T04:48:56;8.50;99.90
15357;DHT22;7778;48.792;9.260;2023-12-28T04:51:44;8.70;99.90
15357;DHT22;7778;48.792;9.260;2023-12-28T04:54:30;8.90;99.90
15357;DHT22;7778;48.792;9.260;2023-12-28T04:57:18;8.90;99.90
15357;DHT22;7778;48.792;9.260;2023-12-28T05:00:04;9.00;99.90
15357;DHT22;7778;48.792;9.260;2023-12-28T05:02:51;9.00;99.90
15357;DHT22;7778;48.792;9.260;2023-12-28T05:05:36;9.00;99.90
15357;DHT22;7778;48.792;9.260;2023-12-28T05:08:22;9.00;99.90
15357;DHT22;7778;48.792;9.260;2023-12-28T05:11:07;9.10;99.90
15357;DHT22;7778;48.792;9.260;2023-12-28T05:13:54;9.10;99.90
15357;DHT22;7778;48.792;9.260;2023-12-28T05:16:42;9.20;99.90
15357;DHT22;7778;48.792;9.260;2023-12-28T05:19:27;9.10;99.90
15357;DHT22;7778;48.792;9.260;2023-12-28T05:22:13;9.00;99.90
15357;DHT22;7778;48.792;9.260;2023-12-28T05:24:58;9.00;99.90
15357;DHT22;7778;48.792;9.260;2023-12-28T05:27:44;9.10;99.90
15357;DHT22;7778;48.792;9.260;2023-12-28T05:30:30;9.10;99.90
15357;DHT22;7778;48.792;9.260;2023-12-28T05:33:16;9.10;99.90
15357;DHT22;7778;48.792;9.260;2023-12-28T05:36:02;9.10;99.90
15357;DHT22;7778;48.792;9.260;2023-12-28T05:38:47;9.10;99.90
15357;DHT22;7778;48.792;9.260;2023-12-28T05:41:33;9.10;99.90
15357;DHT22;7778;48.792;9.260;2023-12-28T05:44:18;9.20;99.90
15357;DHT22;7778;48.792;9.260;2023-12-28T05:47:06;9.30;99.90
15357;DHT22;7778;48.792;9.260;2023-12-28T05:49:51;9.40;99.90
15357;DHT22;7778;48.792;9.260;2023-12-28T05:52:37;9.60;99.90
15357;DHT22;7778;48.792;9.260;2023-12-28T05:55:22;9.40;99.90
15357;DHT22;7778;48.792;9.260;2023-12-28T05:58:08;9.40;99.90
15357;DHT22;7778;48.792;9.260;2023-12-28T06:00:54;9.40;99.90
15357;DHT22;7778;48.792;9.260;2023-12-28T06:03:40;9.40;99.90
15357;DHT22;7778;48.792;9.260;2023-12-28T06:06:26;9.30;99.90
15357;DHT22;7778;48.792;9.260;2023-12-28T06:09:11;9.20;99.90
15357;DHT22;7778;48.792;9.260;2023-12-28T06:11:57;9.20;99.90
15357;DHT22;7778;48.792;9.260;2023-12-28T06:14:42;9.20;99.90
15357;DHT22;7778;48.792;9.260;2023-12-28T06:17:28;9.30;99.90
15357;DHT22;7778;48.792;9.260;2023-12-28T06:20:15;9.30;99.90
15357;DHT22;7778;48.792;9.260;2023-12-28T06:23:00;9.40;99.90
15357;DHT22;7778;48.792;9.260;2023-12-28T06:25:46;9.40;99.90
15357;DHT22;7778;48.792;9.260;2023-12-28T06:28:32;9.40;99.90
15357;DHT22;7778;48.792;9.260;2023-12-28T06:31:18;9.40;99.90
15357;DHT22;7778;48.792;9.260;2023-12-28T06:34:04;9.40;99.90
15357;DHT22;7778;48.792;9.260;2023-12-28T06:36:51;9.40;99.90
15357;DHT22;7778;48.792;9.260;2023-12-28T06:39:36;9.60;99.90
15357;DHT22;7778;48.792;9.260;2023-12-28T06:42:22;9.70;99.90
15357;DHT22;7778;48.792;9.260;2023-12-28T06:45:08;9.70;99.90
15357;DHT22;7778;48.792;9.260;2023-12-28T06:47:54;9.80;99.90
15357;DHT22;7778;48.792;9.260;2023-12-28T06:50:39;9.80;99.90
15357;DHT22;7778;48.792;9.260;2023-12-28T06:53:26;9.80;99.90
15357;DHT22;7778;48.792;9.260;2023-12-28T06:56:12;9.90;99.90
15357;DHT22;7778;48.792;9.260;2023-12-28T06:58:57;9.90;99.90
15357;DHT22;7778;48.792;9.260;2023-12-28T07:01:43;10.00;99.90
15357;DHT22;7778;48.792;9.260;2023-12-28T07:04:29;10.00;99.90
15357;DHT22;7778;48.792;9.260;2023-12-28T07:07:17;10.00;99.90
15357;DHT22;7778;48.792;9.260;2023-12-28T07:10:05;10.10;99.90
15357;DHT22;7778;48.792;9.260;2023-12-28T07:12:52;10.20;99.90
15357;DHT22;7778;48.792;9.260;2023-12-28T07:15:37;10.20;99.90
15357;DHT22;7778;48.792;9.260;2023-12-28T07:18:23;10.30;99.90
15357;DHT22;7778;48.792;9.260;2023-12-28T07:21:08;10.40;99.90
15357;DHT22;7778;48.792;9.260;2023-12-28T07:23:54;10.50;99.90
15357;DHT22;7778;48.792;9.260;2023-12-28T07:26:41;10.40;99.90
15357;DHT22;7778;48.792;9.260;2023-12-28T07:29:27;10.50;99.90
15357;DHT22;7778;48.792;9.260;2023-12-28T07:32:12;10.50;99.90
15357;DHT22;7778;48.792;9.260;2023-12-28T07:34:58;10.50;99.90
15357;DHT22;7778;48.792;9.260;2023-12-28T07:37:44;10.60;99.90
15357;DHT22;7778;48.792;9.260;2023-12-28T07:40:29;10.50;99.90
15357;DHT22;7778;48.792;9.260;2023-12-28T07:43:16;10.60;99.90
15357;DHT22;7778;48.792;9.260;2023-12-28T07:46:02;10.60;99.90
15357;DHT22;7778;48.792;9.260;2023-12-28T07:48:48;10.70;99.90
15357;DHT22;7778;48.792;9.260;2023-12-28T07:51:34;10.70;99.90
15357;DHT22;7778;48.792;9.260;2023-12-28T07:54:19;10.70;99.90
15357;DHT22;7778;48.792;9.260;2023-12-28T07:57:05;10.80;99.90
15357;DHT22;7778;48.792;9.260;2023-12-28T07:59:52;10.80;99.90
15357;DHT22;7778;48.792;9.260;2023-12-28T08:02:38;10.80;99.90
15357;DHT22;7778;48.792;9.260;2023-12-28T08:05:23;10.70;99.90
15357;DHT22;7778;48.792;9.260;2023-12-28T08:08:09;10.50;99.90
15357;DHT22;7778;48.792;9.260;2023-12-28T08:10:54;10.40;99.90
15357;DHT22;7778;48.792;9.260;2023-12-28T08:13:40;10.30;99.90
15357;DHT22;7778;48.792;9.260;2023-12-28T08:16:27;10.40;99.90
15357;DHT22;7778;48.792;9.260;2023-12-28T08:19:14;10.40;99.90
15357;DHT22;7778;48.792;9.260;2023-12-28T08:21:59;10.30;99.90
15357;DHT22;7778;48.792;9.260;2023-12-28T08:24:45;10.40;99.90
15357;DHT22;7778;48.792;9.260;2023-12-28T08:27:30;10.30;99.90
15357;DHT22;7778;48.792;9.260;2023-12-28T08:30:16;10.20;99.90
15357;DHT22;7778;48.792;9.260;2023-12-28T08:33:04;10.30;99.90
15357;DHT22;7778;48.792;9.260;2023-12-28T08:35:49;10.40;99.90
15357;DHT22;7778;48.792;9.260;2023-12-28T08:38:35;10.20;99.90
15357;DHT22;7778;48.792;9.260;2023-12-28T08:41:22;10.10;99.90
15357;DHT22;7778;48.792;9.260;2023-12-28T08:44:09;10.00;99.90
15357;DHT22;7778;48.792;9.260;2023-12-28T08:46:54;10.00;99.90
15357;DHT22;7778;48.792;9.260;2023-12-28T08:49:41;9.90;99.90
15357;DHT22;7778;48.792;9.260;2023-12-28T08:52:26;9.90;99.90
15357;DHT22;7778;48.792;9.260;2023-12-28T08:55:12;9.60;99.90
15357;DHT22;7778;48.792;9.260;2023-12-28T08:57:58;9.20;99.90
15357;DHT22;7778;48.792;9.260;2023-12-28T09:00:43;9.20;99.90
15357;DHT22;7778;48.792;9.260;2023-12-28T09:03:29;9.40;99.90
15357;DHT22;7778;48.792;9.260;2023-12-28T09:06:16;9.50;99.90
15357;DHT22;7778;48.792;9.260;2023-12-28T09:09:02;9.60;99.90
15357;DHT22;7778;48.792;9.260;2023-12-28T09:11:49;9.70;99.90
15357;DHT22;7778;48.792;9.260;2023-12-28T09:14:35;9.80;99.90
15357;DHT22;7778;48.792;9.260;2023-12-28T09:17:21;10.00;99.90
15357;DHT22;7778;48.792;9.260;2023-12-28T09:20:08;10.30;99.90
15357;DHT22;7778;48.792;9.260;2023-12-28T09:22:57;10.40;99.90
15357;DHT22;7778;48.792;9.260;2023-12-28T09:25:42;10.50;99.90
15357;DHT22;7778;48.792;9.260;2023-12-28T09:28:28;10.50;99.90
15357;DHT22;7778;48.792;9.260;2023-12-28T09:31:13;10.70;99.90
15357;DHT22;7778;48.792;9.260;2023-12-28T09:33:58;10.80;99.90
15357;DHT22;7778;48.792;9.260;2023-12-28T09:36:44;10.80;99.90
15357;DHT22;7778;48.792;9.260;2023-12-28T09:39:31;10.90;99.90
15357;DHT22;7778;48.792;9.260;2023-12-28T09:42:25;11.00;99.90
15357;DHT22;7778;48.792;9.260;2023-12-28T09:45:11;11.10;99.90
15357;DHT22;7778;48.792;9.260;2023-12-28T09:47:59;10.90;99.90
15357;DHT22;7778;48.792;9.260;2023-12-28T09:50:49;10.90;99.90
15357;DHT22;7778;48.792;9.260;2023-12-28T09:53:38;11.00;99.90
15357;DHT22;7778;48.792;9.260;2023-12-28T09:56:25;11.00;99.90
15357;DHT22;7778;48.792;9.260;2023-12-28T09:59:11;11.10;99.90
15357;DHT22;7778;48.792;9.260;2023-12-28T10:01:59;11.10;99.90
15357;DHT22;7778;48.792;9.260;2023-12-28T10:04:45;11.20;99.90
15357;DHT22;7778;48.792;9.260;2023-12-28T10:07:31;11.20;99.90
15357;DHT22;7778;48.792;9.260;2023-12-28T10:10:17;11.30;99.90
15357;DHT22;7778;48.792;9.260;2023-12-28T10:13:06;11.30;99.90
15357;DHT22;7778;48.792;9.260;2023-12-28T10:15:52;11.40;99.90
15357;DHT22;7778;48.792;9.260;2023-12-28T10:18:40;11.40;99.90
15357;DHT22;7778;48.792;9.260;2023-12-28T10:21:27;11.30;99.90
15357;DHT22;7778;48.792;9.260;2023-12-28T10:24:13;11.20;99.90
15357;DHT22;7778;48.792;9.260;2023-12-28T10:26:59;11.00;99.90
15357;DHT22;7778;48.792;9.260;2023-12-28T10:29:47;10.90;99.90
15357;DHT22;7778;48.792;9.260;2023-12-28T10:32:33;10.80;99.90
15357;DHT22;7778;48.792;9.260;2023-12-28T10:35:19;10.90;99.90
15357;DHT22;7778;48.792;9.260;2023-12-28T10:38:04;11.00;99.90
15357;DHT22;7778;48.792;9.260;2023-12-28T10:40:52;11.20;99.90
15357;DHT22;7778;48.792;9.260;2023-12-28T10:43:46;11.10;99.90
15357;DHT22;7778;48.792;9.260;2023-12-28T10:46:39;11.00;99.90
15357;DHT22;7778;48.792;9.260;2023-12-28T10:49:26;11.00;99.90
15357;DHT22;7778;48.792;9.260;2023-12-28T10:52:13;11.30;99.90
15357;DHT22;7778;48.792;9.260;2023-12-28T10:55:14;11.20;99.90
15357;DHT22;7778;48.792;9.260;2023-12-28T10:58:10;11.00;99.90
15357;DHT22;7778;48.792;9.260;2023-12-28T11:01:01;11.00;99.90
15357;DHT22;7778;48.792;9.260;2023-12-28T11:03:55;11.10;99.90
15357;DHT22;7778;48.792;9.260;2023-12-28T11:06:44;11.20;99.90
15357;DHT22;7778;48.792;9.260;2023-12-28T11:09:31;11.30;99.90
15357;DHT22;7778;48.792;9.260;2023-12-28T11:12:18;11.20;99.90
15357;DHT22;7778;48.792;9.260;2023-12-28T11:15:05;11.30;99.90
15357;DHT22;7778;48.792;9.260;2023-12-28T11:17:52;11.40;99.90
15357;DHT22;7778;48.792;9.260;2023-12-28T11:20:40;11.40;99.90
15357;DHT22;7778;48.792;9.260;2023-12-28T11:23:26;11.40;99.90
15357;DHT22;7778;48.792;9.260;2023-12-28T11:26:16;11.50;99.90
15357;DHT22;7778;48.792;9.260;2023-12-28T11:29:02;11.60;99.90
15357;DHT22;7778;48.792;9.260;2023-12-28T11:31:51;11.70;99.90
15357;DHT22;7778;48.792;9.260;2023-12-28T11:34:36;11.80;99.90
15357;DHT22;7778;48.792;9.260;2023-12-28T11:37:26;11.80;99.90
15357;DHT22;7778;48.792;9.260;2023-12-28T11:40:13;11.70;99.90
15357;DHT22;7778;48.792;9.260;2023-12-28T11:43:01;11.60;99.90
15357;DHT22;7778;48.792;9.260;2023-12-28T11:45:51;11.60;99.90
15357;DHT22;7778;48.792;9.260;2023-12-28T11:48:49;11.50;99.90
15357;DHT22;7778;48.792;9.260;2023-12-28T11:51:37;11.50;99.90
15357;DHT22;7778;48.792;9.260;2023-12-28T11:54:25;11.50;99.90
15357;DHT22;7778;48.792;9.260;2023-12-28T11:57:12;11.60;99.90
15357;DHT22;7778;48.792;9.260;2023-12-28T11:59:58;11.60;99.90
15357;DHT22;7778;48.792;9.260;2023-12-28T12:02:45;11.80;99.90
15357;DHT22;7778;48.792;9.260;2023-12-28T12:05:30;11.90;99.90
15357;DHT22;7778;48.792;9.260;2023-12-28T12:08:16;11.90;99.90
15357;DHT22;7778;48.792;9.260;2023-12-28T12:11:05;11.90;99.90
15357;DHT22;7778;48.792;9.260;2023-12-28T12:13:51;12.00;99.90
15357;DHT22;7778;48.792;9.260;2023-12-28T12:16:38;11.90;99.90
15357;DHT22;7778;48.792;9.260;2023-12-28T12:19:24;12.00;99.90
15357;DHT22;7778;48.792;9.260;2023-12-28T12:22:11;11.90;99.90
15357;DHT22;7778;48.792;9.260;2023-12-28T12:24:59;11.70;99.90
15357;DHT22;7778;48.792;9.260;2023-12-28T12:27:49;11.60;99.90
15357;DHT22;7778;48.792;9.260;2023-12-28T12:30:35;11.60;99.90
15357;DHT22;7778;48.792;9.260;2023-12-28T12:33:21;11.60;99.90
15357;DHT22;7778;48.792;9.260;2023-12-28T12:36:07;11.60;99.90
15357;DHT22;7778;48.792;9.260;2023-12-28T12:38:53;11.70;99.90
15357;DHT22;7778;48.792;9.260;2023-12-28T12:41:39;11.80;99.90
15357;DHT22;7778;48.792;9.260;2023-12-28T12:44:26;11.70;99.90
15357;DHT22;7778;48.792;9.260;2023-12-28T12:47:13;11.80;99.90
15357;DHT22;7778;48.792;9.260;2023-12-28T12:49:58;11.70;99.90
15357;DHT22;7778;48.792;9.260;2023-12-28T12:52:44;11.70;99.90
15357;DHT22;7778;48.792;9.260;2023-12-28T12:55:30;11.60;99.90
15357;DHT22;7778;48.792;9.260;2023-12-28T12:58:16;11.60;99.90
15357;DHT22;7778;48.792;9.260;2023-12-28T13:01:03;11.70;99.90
15357;DHT22;7778;48.792;9.260;2023-12-28T13:03:50;11.80;99.90
15357;DHT22;7778;48.792;9.260;2023-12-28T13:06:36;11.80;99.90
15357;DHT22;7778;48.792;9.260;2023-12-28T13:09:21;11.90;99.90
15357;DHT22;7778;48.792;9.260;2023-12-28T13:12:07;11.90;99.90
15357;DHT22;7778;48.792;9.260;2023-12-28T13:14:53;11.90;99.90
15357;DHT22;7778;48.792;9.260;2023-12-28T13:17:40;11.90;99.90
15357;DHT22;7778;48.792;9.260;2023-12-28T13:20:26;12.00;99.90
15357;DHT22;7778;48.792;9.260;2023-12-28T13:23:11;12.10;99.90
15357;DHT22;7778;48.792;9.260;2023-12-28T13:25:57;12.10;99.90
15357;DHT22;7778;48.792;9.260;2023-12-28T13:28:42;12.10;99.90
15357;DHT22;7778;48.792;9.260;2023-12-28T13:31:28;12.20;99.90
15357;DHT22;7778;48.792;9.260;2023-12-28T13:34:15;12.00;99.90
15357;DHT22;7778;48.792;9.260;2023-12-28T13:37:00;11.90;99.90
15357;DHT22;7778;48.792;9.260;2023-12-28T13:39:47;11.90;99.90
15357;DHT22;7778;48.792;9.260;2023-12-28T13:42:33;11.80;99.90
15357;DHT22;7778;48.792;9.260;2023-12-28T13:45:19;11.70;99.90
15357;DHT22;7778;48.792;9.260;2023-12-28T13:48:05;11.60;99.90
15357;DHT22;7778;48.792;9.260;2023-12-28T13:50:54;11.60;99.90
15357;DHT22;7778;48.792;9.260;2023-12-28T13:53:39;11.70;99.90
15357;DHT22;7778;48.792;9.260;2023-12-28T13:56:25;11.50;99.90
15357;DHT22;7778;48.792;9.260;2023-12-28T13:59:10;11.60;99.90
15357;DHT22;7778;48.792;9.260;2023-12-28T14:01:56;11.50;99.90
15357;DHT22;7778;48.792;9.260;2023-12-28T14:04:42;11.50;99.90
15357;DHT22;7778;48.792;9.260;2023-12-28T14:07:28;11.40;99.90
15357;DHT22;7778;48.792;9.260;2023-12-28T14:10:14;11.40;99.90
15357;DHT22;7778;48.792;9.260;2023-12-28T14:13:00;11.40;99.90
15357;DHT22;7778;48.792;9.260;2023-12-28T14:15:46;11.20;99.90
15357;DHT22;7778;48.792;9.260;2023-12-28T14:18:31;11.20;99.90
15357;DHT22;7778;48.792;9.260;2023-12-28T14:21:17;11.20;99.90
15357;DHT22;7778;48.792;9.260;2023-12-28T14:24:06;11.20;99.90
15357;DHT22;7778;48.792;9.260;2023-12-28T14:26:54;11.20;99.90
15357;DHT22;7778;48.792;9.260;2023-12-28T14:29:40;11.30;99.90
15357;DHT22;7778;48.792;9.260;2023-12-28T14:32:26;11.30;99.90
15357;DHT22;7778;48.792;9.260;2023-12-28T14:35:14;11.20;99.90
15357;DHT22;7778;48.792;9.260;2023-12-28T14:38:01;11.20;99.90
15357;DHT22;7778;48.792;9.260;2023-12-28T14:40:48;11.20;99.90
15357;DHT22;7778;48.792;9.260;2023-12-28T14:43:35;11.20;99.90
15357;DHT22;7778;48.792;9.260;2023-12-28T14:46:21;11.20;99.90
15357;DHT22;7778;48.792;9.260;2023-12-28T14:49:07;11.10;99.90
15357;DHT22;7778;48.792;9.260;2023-12-28T14:51:52;11.30;99.90
15357;DHT22;7778;48.792;9.260;2023-12-28T14:54:38;11.10;99.90
15357;DHT22;7778;48.792;9.260;2023-12-28T14:57:25;11.30;99.90
15357;DHT22;7778;48.792;9.260;2023-12-28T15:00:12;11.20;99.90
15357;DHT22;7778;48.792;9.260;2023-12-28T15:02:58;11.20;99.90
15357;DHT22;7778;48.792;9.260;2023-12-28T15:05:43;11.20;99.90
15357;DHT22;7778;48.792;9.260;2023-12-28T15:08:29;11.30;99.90
15357;DHT22;7778;48.792;9.260;2023-12-28T15:11:15;11.10;99.90
15357;DHT22;7778;48.792;9.260;2023-12-28T15:14:04;11.00;99.90
15357;DHT22;7778;48.792;9.260;2023-12-28T15:16:51;10.90;99.90
15357;DHT22;7778;48.792;9.260;2023-12-28T15:19:37;10.80;99.90
15357;DHT22;7778;48.792;9.260;2023-12-28T15:22:23;10.80;99.90
15357;DHT22;7778;48.792;9.260;2023-12-28T15:25:09;10.80;99.90
15357;DHT22;7778;48.792;9.260;2023-12-28T15:27:55;10.90;99.90
15357;DHT22;7778;48.792;9.260;2023-12-28T15:30:42;10.90;99.90
15357;DHT22;7778;48.792;9.260;2023-12-28T15:33:27;10.80;99.90
15357;DHT22;7778;48.792;9.260;2023-12-28T15:36:13;10.90;99.90
15357;DHT22;7778;48.792;9.260;2023-12-28T15:38:59;10.80;99.90
15357;DHT22;7778;48.792;9.260;2023-12-28T15:41:48;10.90;99.90
15357;DHT22;7778;48.792;9.260;2023-12-28T15:44:34;10.80;99.90
15357;DHT22;7778;48.792;9.260;2023-12-28T15:47:21;10.70;99.90
15357;DHT22;7778;48.792;9.260;2023-12-28T15:50:06;10.70;99.90
15357;DHT22;7778;48.792;9.260;2023-12-28T15:52:53;10.60;99.90
15357;DHT22;7778;48.792;9.260;2023-12-28T15:55:39;10.70;99.90
15357;DHT22;7778;48.792;9.260;2023-12-28T15:58:24;10.60;99.90
15357;DHT22;7778;48.792;9.260;2023-12-28T16:01:10;10.70;99.90
15357;DHT22;7778;48.792;9.260;2023-12-28T16:03:57;10.70;99.90
15357;DHT22;7778;48.792;9.260;2023-12-28T16:06:42;10.60;99.90
15357;DHT22;7778;48.792;9.260;2023-12-28T16:09:28;10.60;99.90
15357;DHT22;7778;48.792;9.260;2023-12-28T16:12:14;10.60;99.90
15357;DHT22;7778;48.792;9.260;2023-12-28T16:15:02;10.70;99.90
15357;DHT22;7778;48.792;9.260;2023-12-28T16:17:49;10.60;99.90
15357;DHT22;7778;48.792;9.260;2023-12-28T16:20:43;10.60;99.90
15357;DHT22;7778;48.792;9.260;2023-12-28T16:23:29;10.40;99.90
15357;DHT22;7778;48.792;9.260;2023-12-28T16:26:15;10.30;99.90
15357;DHT22;7778;48.792;9.260;2023-12-28T16:29:02;10.30;99.90
15357;DHT22;7778;48.792;9.260;2023-12-28T16:31:48;10.50;99.90
15357;DHT22;7778;48.792;9.260;2023-12-28T16:34:34;10.20;99.90
15357;DHT22;7778;48.792;9.260;2023-12-28T16:37:24;10.30;99.90
15357;DHT22;7778;48.792;9.260;2023-12-28T16:40:10;10.30;99.90
15357;DHT22;7778;48.792;9.260;2023-12-28T16:42:56;10.20;99.90
15357;DHT22;7778;48.792;9.260;2023-12-28T16:45:41;10.20;99.90
15357;DHT22;7778;48.792;9.260;2023-12-28T16:48:27;10.40;99.90
15357;DHT22;7778;48.792;9.260;2023-12-28T16:51:13;10.30;99.90
15357;DHT22;7778;48.792;9.260;2023-12-28T16:54:00;10.30;99.90
15357;DHT22;7778;48.792;9.260;2023-12-28T16:56:45;10.30;99.90
15357;DHT22;7778;48.792;9.260;2023-12-28T16:59:30;10.40;99.90
15357;DHT22;7778;48.792;9.260;2023-12-28T17:02:16;10.20;99.90
15357;DHT22;7778;48.792;9.260;2023-12-28T17:05:07;10.30;99.90
15357;DHT22;7778;48.792;9.260;2023-12-28T17:07:54;10.30;99.90
15357;DHT22;7778;48.792;9.260;2023-12-28T17:10:42;10.30;99.90
15357;DHT22;7778;48.792;9.260;2023-12-28T17:13:28;10.40;99.90
15357;DHT22;7778;48.792;9.260;2023-12-28T17:16:15;10.40;99.90
15357;DHT22;7778;48.792;9.260;2023-12-28T17:19:01;10.40;99.90
15357;DHT22;7778;48.792;9.260;2023-12-28T17:21:48;10.50;99.90
15357;DHT22;7778;48.792;9.260;2023-12-28T17:24:40;10.60;99.90
15357;DHT22;7778;48.792;9.260;2023-12-28T17:27:34;10.50;99.90
15357;DHT22;7778;48.792;9.260;2023-12-28T17:30:23;10.50;99.90
15357;DHT22;7778;48.792;9.260;2023-12-28T17:33:11;10.40;99.90
15357;DHT22;7778;48.792;9.260;2023-12-28T17:35:58;10.30;99.90
15357;DHT22;7778;48.792;9.260;2023-12-28T17:38:44;10.40;99.90
15357;DHT22;7778;48.792;9.260;2023-12-28T17:41:34;10.40;99.90
15357;DHT22;7778;48.792;9.260;2023-12-28T17:44:24;10.40;99.90
15357;DHT22;7778;48.792;9.260;2023-12-28T17:47:16;10.40;99.90
15357;DHT22;7778;48.792;9.260;2023-12-28T17:50:06;10.40;99.90
15357;DHT22;7778;48.792;9.260;2023-12-28T17:52:54;10.30;99.90
15357;DHT22;7778;48.792;9.260;2023-12-28T17:55:40;10.40;99.90